Time;durP1;ratioP1;P1;durP2;ratioP2;P2;SDS_P1;SDS_P2;PMS_P1;PMS_P2;Temp;Humidity;BMP_temperature;BMP_pressure;BME280_temperature;BME280_humidity;BME280_pressure;Samples;Min_cycle;Max_cycle;Signal;HPM_P1;HPM_P2
2023/09/15 00:02:12;;;;;;;9.23;8.30;;;;;;;;;;5029984;28;20472;-83
2023/09/15 00:04:39;;;;;;;8.60;7.80;;;;;;;;;;5014283;28;20482;-82
2023/09/15 00:07:06;;;;;;;8.27;7.57;;;;;;;;;;5026694;28;20445;-82
2023/09/15 00:09:32;;;;;;;8.30;7.50;;;;;;;;;;4992964;28;20470;-83
2023/09/15 00:11:58;;;;;;;7.70;7.10;;;;;;;;;;5023831;28;20990;-83
2023/09/15 00:14:26;;;;;;;8.70;7.73;;;;;;;;;;5011259;28;20486;-82
2023/09/15 00:16:53;;;;;;;8.40;7.60;;;;;;;;;;5021857;28;20469;-83
2023/09/15 00:19:22;;;;;;;8.20;7.60;;;;;;;;;;5003642;28;20448;-81
2023/09/15 00:21:49;;;;;;;8.23;7.43;;;;;;;;;;5009899;28;20530;-81
2023/09/15 00:24:16;;;;;;;8.83;7.73;;;;;;;;;;5017973;28;20463;-84
2023/09/15 00:26:43;;;;;;;9.00;7.70;;;;;;;;;;5022641;28;20993;-80
2023/09/15 00:29:11;;;;;;;8.20;7.50;;;;;;;;;;5017034;28;20543;-80
2023/09/15 00:31:40;;;;;;;8.00;7.17;;;;;;;;;;5005936;28;20488;-83
2023/09/15 00:34:06;;;;;;;6.90;6.40;;;;;;;;;;5008774;28;20465;-81
2023/09/15 00:36:33;;;;;;;6.07;5.50;;;;;;;;;;5016247;28;20464;-80
2023/09/15 00:39:01;;;;;;;7.60;6.90;;;;;;;;;;5022814;28;20469;-83
2023/09/15 00:41:27;;;;;;;7.87;6.57;;;;;;;;;;5011845;28;20538;-81
2023/09/15 00:43:54;;;;;;;8.83;7.67;;;;;;;;;;5008819;28;20932;-80
2023/09/15 00:46:20;;;;;;;7.23;6.63;;;;;;;;;;5023647;28;20482;-81
2023/09/15 00:48:49;;;;;;;8.30;7.47;;;;;;;;;;5018189;28;20476;-81
2023/09/15 00:51:16;;;;;;;8.10;7.20;;;;;;;;;;5013560;28;20470;-81
2023/09/15 00:53:42;;;;;;;7.63;7.03;;;;;;;;;;5018073;28;20842;-80
2023/09/15 00:56:09;;;;;;;8.07;7.37;;;;;;;;;;5010086;28;20529;-81
2023/09/15 00:58:40;;;;;;;7.77;6.90;;;;;;;;;;4989692;28;20487;-81
2023/09/15 01:01:06;;;;;;;7.63;6.90;;;;;;;;;;4992227;28;20472;-83
2023/09/15 01:03:35;;;;;;;11.23;6.77;;;;;;;;;;5011183;28;20481;-81
2023/09/15 01:06:03;;;;;;;7.70;7.00;;;;;;;;;;4995923;28;20529;-81
2023/09/15 01:08:29;;;;;;;9.00;6.57;;;;;;;;;;5012163;28;20469;-80
2023/09/15 01:10:58;;;;;;;8.00;7.30;;;;;;;;;;5010399;28;20482;-80
2023/09/15 01:13:24;;;;;;;9.40;8.00;;;;;;;;;;5000449;28;20542;-79
2023/09/15 01:15:54;;;;;;;8.77;7.97;;;;;;;;;;5009181;28;20460;-80
2023/09/15 01:18:21;;;;;;;8.70;7.40;;;;;;;;;;5006116;28;20457;-81
2023/09/15 01:21:03;;;;;;;10.00;9.03;;;;;;;;;;5020558;28;20476;-82
2023/09/15 01:23:39;;;;;;;8.77;8.00;;;;;;;;;;4975460;28;20472;-81
2023/09/15 01:26:14;;;;;;;8.73;7.80;;;;;;;;;;5016032;28;20471;-83
2023/09/15 01:28:55;;;;;;;11.17;7.80;;;;;;;;;;5014270;28;20856;-82
2023/09/15 01:31:23;;;;;;;7.80;7.10;;;;;;;;;;5006624;28;21129;-81
2023/09/15 01:33:49;;;;;;;8.03;7.33;;;;;;;;;;5003511;28;20477;-80
2023/09/15 01:36:19;;;;;;;8.00;7.20;;;;;;;;;;5015868;28;20481;-82
2023/09/15 01:38:45;;;;;;;8.70;7.80;;;;;;;;;;5019809;28;20484;-82
2023/09/15 01:41:12;;;;;;;8.30;7.50;;;;;;;;;;5004800;28;20552;-82
2023/09/15 01:43:38;;;;;;;10.23;7.60;;;;;;;;;;5018881;28;20488;-81
2023/09/15 01:46:05;;;;;;;9.13;8.33;;;;;;;;;;5016683;28;20478;-82
2023/09/15 01:48:33;;;;;;;10.90;8.17;;;;;;;;;;5011623;28;20503;-82
2023/09/15 01:51:00;;;;;;;8.70;7.90;;;;;;;;;;5011375;28;20468;-82
2023/09/15 01:53:26;;;;;;;8.73;7.97;;;;;;;;;;5010579;28;20466;-79
2023/09/15 01:55:53;;;;;;;8.53;7.73;;;;;;;;;;5012961;28;20481;-82
2023/09/15 01:58:19;;;;;;;8.43;7.73;;;;;;;;;;5009562;28;20470;-82
2023/09/15 02:00:46;;;;;;;9.07;7.10;;;;;;;;;;5001098;28;20471;-82
2023/09/15 02:03:13;;;;;;;10.60;7.43;;;;;;;;;;4998008;28;20469;-82
2023/09/15 02:05:41;;;;;;;8.60;7.70;;;;;;;;;;5003177;28;20469;-81
2023/09/15 02:08:07;;;;;;;10.70;8.10;;;;;;;;;;4992167;28;20531;-82
2023/09/15 02:10:33;;;;;;;6.80;6.20;;;;;;;;;;5013696;28;20473;-82
2023/09/15 02:13:00;;;;;;;7.10;6.50;;;;;;;;;;5019905;28;20470;-82
2023/09/15 02:15:26;;;;;;;8.63;7.30;;;;;;;;;;5023286;28;20481;-82
2023/09/15 02:17:53;;;;;;;11.97;7.20;;;;;;;;;;5017747;28;20459;-81
2023/09/15 02:20:20;;;;;;;7.73;6.93;;;;;;;;;;4982234;28;20498;-82
2023/09/15 02:22:48;;;;;;;9.13;8.20;;;;;;;;;;5016912;28;20500;-81
2023/09/15 02:25:16;;;;;;;8.77;7.90;;;;;;;;;;5004849;28;21252;-82
2023/09/15 02:27:44;;;;;;;8.43;7.63;;;;;;;;;;5006532;28;20490;-83
2023/09/15 02:30:11;;;;;;;10.40;8.70;;;;;;;;;;5008578;28;20476;-82
2023/09/15 02:32:38;;;;;;;9.43;7.30;;;;;;;;;;4998560;28;20488;-82
2023/09/15 02:35:05;;;;;;;7.73;7.00;;;;;;;;;;5010604;28;20484;-82
2023/09/15 02:37:34;;;;;;;12.50;7.73;;;;;;;;;;5008484;28;20475;-82
2023/09/15 02:40:03;;;;;;;7.83;7.13;;;;;;;;;;5011631;28;20503;-82
2023/09/15 02:42:29;;;;;;;10.43;7.60;;;;;;;;;;5001581;28;20993;-82
2023/09/15 02:44:56;;;;;;;12.43;7.60;;;;;;;;;;4991413;28;20462;-82
2023/09/15 02:47:22;;;;;;;9.90;7.40;;;;;;;;;;5017435;28;20477;-81
2023/09/15 02:49:48;;;;;;;8.07;7.43;;;;;;;;;;5004005;28;20499;-82
2023/09/15 02:52:15;;;;;;;8.27;7.47;;;;;;;;;;5006128;28;21124;-82
2023/09/15 02:54:41;;;;;;;12.50;8.33;;;;;;;;;;5010572;28;20473;-81
2023/09/15 02:57:09;;;;;;;9.00;7.73;;;;;;;;;;4996181;28;20489;-81
2023/09/15 02:59:35;;;;;;;8.07;7.37;;;;;;;;;;5017460;28;20470;-82
2023/09/15 03:02:02;;;;;;;8.43;7.53;;;;;;;;;;5006121;28;20465;-81
2023/09/15 03:04:29;;;;;;;9.50;8.20;;;;;;;;;;4997505;28;20473;-82
2023/09/15 03:06:55;;;;;;;11.63;7.40;;;;;;;;;;5010572;28;20559;-82
2023/09/15 03:09:21;;;;;;;7.83;7.13;;;;;;;;;;5001708;28;20463;-82
2023/09/15 03:11:48;;;;;;;8.47;7.50;;;;;;;;;;5014177;28;20497;-82
2023/09/15 03:14:18;;;;;;;9.47;6.87;;;;;;;;;;5002965;28;20462;-81
2023/09/15 03:16:44;;;;;;;7.47;6.83;;;;;;;;;;4999631;28;20496;-82
2023/09/15 03:19:11;;;;;;;8.60;7.60;;;;;;;;;;5014340;28;20972;-82
2023/09/15 03:21:38;;;;;;;12.00;7.90;;;;;;;;;;4997774;28;20473;-82
2023/09/15 03:24:05;;;;;;;8.40;7.67;;;;;;;;;;5008210;28;20481;-82
2023/09/15 03:26:31;;;;;;;13.20;7.60;;;;;;;;;;5003387;28;20473;-82
2023/09/15 03:28:58;;;;;;;9.13;7.87;;;;;;;;;;5019468;28;20492;-83
2023/09/15 03:31:26;;;;;;;8.40;7.63;;;;;;;;;;5019974;28;20969;-82
2023/09/15 03:33:52;;;;;;;8.50;7.70;;;;;;;;;;5012363;28;20997;-82
2023/09/15 03:36:19;;;;;;;14.83;7.43;;;;;;;;;;5014788;28;20494;-82
2023/09/15 03:38:47;;;;;;;8.20;7.40;;;;;;;;;;5012537;28;20495;-82
2023/09/15 03:41:14;;;;;;;9.27;8.10;;;;;;;;;;4974845;28;20469;-82
2023/09/15 03:43:40;;;;;;;7.37;6.67;;;;;;;;;;5018584;28;20507;-82
2023/09/15 03:46:07;;;;;;;6.90;6.30;;;;;;;;;;5007525;28;20461;-81
2023/09/15 03:48:34;;;;;;;7.70;6.40;;;;;;;;;;5012390;28;20488;-81
2023/09/15 03:51:03;;;;;;;7.33;6.43;;;;;;;;;;5014313;28;20557;-82
2023/09/15 03:53:29;;;;;;;7.77;6.70;;;;;;;;;;5004251;28;20982;-82
2023/09/15 03:55:57;;;;;;;6.07;5.47;;;;;;;;;;5005026;28;20853;-82
2023/09/15 03:58:24;;;;;;;20.47;7.70;;;;;;;;;;4996251;28;20474;-82
2023/09/15 04:00:50;;;;;;;9.33;6.87;;;;;;;;;;5010924;28;20473;-82
2023/09/15 04:03:16;;;;;;;8.20;6.30;;;;;;;;;;5010819;28;20469;-82
2023/09/15 04:05:44;;;;;;;8.20;6.63;;;;;;;;;;4998563;28;20476;-81
2023/09/15 04:08:10;;;;;;;6.83;6.23;;;;;;;;;;5015537;28;20468;-82
2023/09/15 04:10:38;;;;;;;8.57;6.23;;;;;;;;;;5009081;28;20477;-81
2023/09/15 04:13:04;;;;;;;7.23;6.50;;;;;;;;;;5017712;28;20475;-81
2023/09/15 04:15:32;;;;;;;9.20;6.40;;;;;;;;;;5011277;28;20543;-82
2023/09/15 04:17:59;;;;;;;8.80;5.70;;;;;;;;;;5012532;28;20472;-82
2023/09/15 04:20:25;;;;;;;9.70;5.70;;;;;;;;;;5013238;28;20617;-81
2023/09/15 04:22:53;;;;;;;7.30;6.20;;;;;;;;;;5010535;28;20543;-81
2023/09/15 04:25:20;;;;;;;11.10;5.60;;;;;;;;;;5016276;28;20926;-80
2023/09/15 04:27:47;;;;;;;7.20;5.53;;;;;;;;;;5008780;28;20475;-80
2023/09/15 04:30:16;;;;;;;6.27;5.47;;;;;;;;;;5003575;28;20481;-82
2023/09/15 04:32:43;;;;;;;7.87;5.17;;;;;;;;;;5011734;28;21020;-80
2023/09/15 04:35:09;;;;;;;5.93;5.27;;;;;;;;;;5027740;28;20479;-82
2023/09/15 04:37:36;;;;;;;5.13;4.63;;;;;;;;;;4993556;28;20573;-82
2023/09/15 04:40:06;;;;;;;6.00;5.40;;;;;;;;;;5008504;28;20812;-82
2023/09/15 04:42:32;;;;;;;5.43;4.93;;;;;;;;;;5017201;28;21100;-81
2023/09/15 04:44:59;;;;;;;6.50;5.57;;;;;;;;;;5000038;28;20468;-82
2023/09/15 04:47:30;;;;;;;6.20;5.10;;;;;;;;;;5024102;28;20812;-81
2023/09/15 04:49:56;;;;;;;5.70;5.17;;;;;;;;;;5011033;28;20468;-81
2023/09/15 04:52:23;;;;;;;6.33;4.60;;;;;;;;;;5014128;28;20455;-82
2023/09/15 04:54:49;;;;;;;7.23;4.60;;;;;;;;;;5007977;28;20470;-82
2023/09/15 04:57:17;;;;;;;6.43;5.57;;;;;;;;;;4988670;28;20539;-81
2023/09/15 04:59:43;;;;;;;5.40;4.90;;;;;;;;;;5005577;28;21008;-82
2023/09/15 05:02:10;;;;;;;6.50;5.90;;;;;;;;;;5013641;28;20508;-82
2023/09/15 05:04:36;;;;;;;4.87;4.40;;;;;;;;;;5005399;28;20513;-82
2023/09/15 05:07:03;;;;;;;4.03;3.73;;;;;;;;;;5007360;28;20848;-81
2023/09/15 05:09:29;;;;;;;8.17;5.37;;;;;;;;;;5003904;28;20847;-83
2023/09/15 05:11:55;;;;;;;8.93;5.77;;;;;;;;;;5010654;28;20858;-82
2023/09/15 05:14:24;;;;;;;6.70;4.70;;;;;;;;;;5007327;28;21025;-82
2023/09/15 05:16:50;;;;;;;6.43;4.30;;;;;;;;;;5012235;28;20889;-82
2023/09/15 05:19:16;;;;;;;6.20;5.40;;;;;;;;;;5012940;28;20478;-82
2023/09/15 05:21:43;;;;;;;6.00;5.50;;;;;;;;;;5014736;28;20476;-83
2023/09/15 05:24:11;;;;;;;6.00;5.20;;;;;;;;;;5012191;28;20480;-82
2023/09/15 05:26:38;;;;;;;5.90;4.87;;;;;;;;;;4999918;28;20481;-81
2023/09/15 05:29:04;;;;;;;6.43;5.20;;;;;;;;;;5003507;28;20930;-82
2023/09/15 05:31:32;;;;;;;6.50;4.87;;;;;;;;;;5007915;28;20466;-82
2023/09/15 05:33:58;;;;;;;8.03;4.90;;;;;;;;;;5002469;28;20468;-82
2023/09/15 05:36:25;;;;;;;6.27;5.33;;;;;;;;;;5018104;28;20900;-83
2023/09/15 05:38:52;;;;;;;5.33;4.83;;;;;;;;;;4988595;28;20478;-82
2023/09/15 05:41:18;;;;;;;6.40;5.00;;;;;;;;;;5012883;28;20460;-83
2023/09/15 05:43:45;;;;;;;6.00;5.40;;;;;;;;;;4990011;28;20462;-83
2023/09/15 05:46:11;;;;;;;7.73;5.27;;;;;;;;;;5007116;28;20476;-82
2023/09/15 05:48:39;;;;;;;6.10;4.87;;;;;;;;;;5016475;28;20467;-83
2023/09/15 05:51:06;;;;;;;7.20;5.57;;;;;;;;;;5000354;28;20476;-81
2023/09/15 05:53:33;;;;;;;5.17;4.50;;;;;;;;;;5010451;28;20473;-83
2023/09/15 05:55:59;;;;;;;5.30;4.50;;;;;;;;;;5011950;28;20473;-81
2023/09/15 05:58:26;;;;;;;6.93;5.20;;;;;;;;;;4995096;28;20464;-82
2023/09/15 06:00:55;;;;;;;7.03;5.23;;;;;;;;;;5019915;28;20478;-82
2023/09/15 06:03:21;;;;;;;9.13;5.27;;;;;;;;;;4984625;28;20479;-82
2023/09/15 06:05:49;;;;;;;7.10;5.10;;;;;;;;;;5012509;28;20472;-82
2023/09/15 06:08:16;;;;;;;6.23;5.07;;;;;;;;;;5005094;28;20483;-81
2023/09/15 06:10:43;;;;;;;6.50;4.90;;;;;;;;;;5003217;28;20474;-81
2023/09/15 06:13:09;;;;;;;7.50;5.30;;;;;;;;;;5010677;28;20472;-82
2023/09/15 06:15:35;;;;;;;5.30;4.67;;;;;;;;;;5015675;28;20474;-82
2023/09/15 06:18:02;;;;;;;8.00;5.03;;;;;;;;;;5011332;28;20498;-81
2023/09/15 06:20:30;;;;;;;8.87;6.03;;;;;;;;;;5018533;28;20485;-82
2023/09/15 06:22:58;;;;;;;5.30;4.80;;;;;;;;;;5004383;28;20669;-82
2023/09/15 06:25:24;;;;;;;5.33;4.90;;;;;;;;;;5018530;28;20479;-82
2023/09/15 06:27:51;;;;;;;8.23;5.70;;;;;;;;;;5000708;28;21001;-81
2023/09/15 06:30:17;;;;;;;5.23;4.27;;;;;;;;;;4999510;28;21009;-80
2023/09/15 06:32:43;;;;;;;5.37;4.87;;;;;;;;;;5012213;28;20469;-82
2023/09/15 06:35:12;;;;;;;13.80;5.20;;;;;;;;;;5010848;28;20478;-82
2023/09/15 06:37:39;;;;;;;7.33;5.20;;;;;;;;;;4980696;28;20496;-83
2023/09/15 06:40:08;;;;;;;7.00;5.50;;;;;;;;;;4989444;28;20474;-82
2023/09/15 06:42:35;;;;;;;7.80;5.93;;;;;;;;;;5017174;28;20479;-80
2023/09/15 06:45:02;;;;;;;12.30;5.67;;;;;;;;;;4991855;28;21024;-83
2023/09/15 06:47:29;;;;;;;6.40;5.73;;;;;;;;;;4981943;28;20581;-83
2023/09/15 06:49:55;;;;;;;6.17;5.53;;;;;;;;;;4973204;28;20466;-82
2023/09/15 06:52:22;;;;;;;7.77;5.70;;;;;;;;;;5003368;28;20468;-82
2023/09/15 06:54:48;;;;;;;7.30;5.40;;;;;;;;;;5012137;28;20474;-82
2023/09/15 06:57:16;;;;;;;6.63;6.00;;;;;;;;;;5006894;28;20493;-81
2023/09/15 06:59:43;;;;;;;6.73;5.67;;;;;;;;;;5013586;28;20472;-82
2023/09/15 07:02:11;;;;;;;7.40;5.57;;;;;;;;;;5008010;28;20465;-82
2023/09/15 07:04:37;;;;;;;14.83;5.87;;;;;;;;;;5005016;28;20479;-81
2023/09/15 07:07:04;;;;;;;7.90;6.33;;;;;;;;;;5012957;28;20819;-81
2023/09/15 07:09:30;;;;;;;8.90;5.10;;;;;;;;;;5017831;28;20475;-82
2023/09/15 07:11:56;;;;;;;7.93;5.43;;;;;;;;;;5016764;28;20487;-81
2023/09/15 07:14:24;;;;;;;11.23;5.73;;;;;;;;;;4991600;28;20459;-82
2023/09/15 07:16:51;;;;;;;8.00;6.80;;;;;;;;;;5016133;28;20495;-82
2023/09/15 07:19:17;;;;;;;12.53;6.80;;;;;;;;;;5015779;28;20461;-82
2023/09/15 07:21:44;;;;;;;10.53;6.27;;;;;;;;;;5018570;28;20444;-82
2023/09/15 07:24:11;;;;;;;8.33;5.87;;;;;;;;;;5014830;28;20506;-83
2023/09/15 07:26:38;;;;;;;11.10;6.83;;;;;;;;;;5017395;28;20550;-84
2023/09/15 07:29:04;;;;;;;13.50;6.60;;;;;;;;;;5019475;28;20466;-79
2023/09/15 07:31:35;;;;;;;11.90;6.13;;;;;;;;;;5031311;28;21152;-83
2023/09/15 07:34:02;;;;;;;11.07;6.10;;;;;;;;;;5008458;28;20446;-82
2023/09/15 07:36:29;;;;;;;17.80;5.60;;;;;;;;;;5017625;28;20450;-82
2023/09/15 07:38:55;;;;;;;7.87;6.00;;;;;;;;;;5025687;28;20466;-81
2023/09/15 07:41:22;;;;;;;16.53;6.80;;;;;;;;;;5027645;28;20493;-82
2023/09/15 07:43:48;;;;;;;9.23;6.53;;;;;;;;;;5026790;28;20468;-83
2023/09/15 07:46:15;;;;;;;15.70;7.23;;;;;;;;;;5019872;28;20437;-82
2023/09/15 07:48:42;;;;;;;14.87;8.63;;;;;;;;;;5006735;28;20456;-82
2023/09/15 07:51:11;;;;;;;13.40;9.13;;;;;;;;;;5013817;28;20462;-82
2023/09/15 07:53:37;;;;;;;10.53;7.23;;;;;;;;;;4986719;28;20448;-82
2023/09/15 07:56:04;;;;;;;12.73;7.57;;;;;;;;;;5015611;28;21007;-82
2023/09/15 07:58:30;;;;;;;16.80;8.23;;;;;;;;;;5022696;28;20519;-82
2023/09/15 08:00:57;;;;;;;15.37;7.43;;;;;;;;;;5030228;28;20984;-81
2023/09/15 08:03:23;;;;;;;11.80;7.83;;;;;;;;;;5020753;28;20519;-82
2023/09/15 08:05:51;;;;;;;13.60;7.57;;;;;;;;;;4994408;28;20529;-79
2023/09/15 08:08:17;;;;;;;15.40;7.20;;;;;;;;;;5016899;28;20847;-81
2023/09/15 08:10:45;;;;;;;15.10;7.70;;;;;;;;;;5020115;28;20482;-82
2023/09/15 08:13:12;;;;;;;12.73;7.10;;;;;;;;;;4996735;28;20470;-81
2023/09/15 08:15:38;;;;;;;15.37;7.37;;;;;;;;;;4993609;28;20988;-82
2023/09/15 08:18:05;;;;;;;9.63;6.50;;;;;;;;;;5000953;28;21021;-81
2023/09/15 08:20:32;;;;;;;14.00;7.67;;;;;;;;;;5009900;28;20750;-80
2023/09/15 08:23:00;;;;;;;14.10;7.60;;;;;;;;;;5012148;28;20476;-80
2023/09/15 08:25:28;;;;;;;13.53;7.20;;;;;;;;;;5004175;28;20938;-80
2023/09/15 08:27:54;;;;;;;11.57;7.40;;;;;;;;;;5013817;28;20470;-81
2023/09/15 08:30:22;;;;;;;15.00;6.20;;;;;;;;;;5009952;28;20565;-80
2023/09/15 08:32:48;;;;;;;12.53;6.53;;;;;;;;;;5013170;28;20471;-81
2023/09/15 08:35:16;;;;;;;8.80;6.40;;;;;;;;;;5011039;28;20856;-81
2023/09/15 08:37:43;;;;;;;12.80;6.00;;;;;;;;;;5013229;28;20484;-81
2023/09/15 08:40:11;;;;;;;12.07;7.67;;;;;;;;;;5013392;28;20842;-81
2023/09/15 08:42:38;;;;;;;15.43;8.30;;;;;;;;;;5003466;28;20475;-78
2023/09/15 08:45:07;;;;;;;9.00;6.47;;;;;;;;;;4976461;28;20825;-80
2023/09/15 08:47:35;;;;;;;11.90;6.70;;;;;;;;;;5012827;28;20499;-79
2023/09/15 08:50:03;;;;;;;9.37;5.13;;;;;;;;;;4989650;28;20466;-80
2023/09/15 08:52:30;;;;;;;10.60;4.87;;;;;;;;;;5004188;28;21018;-81
2023/09/15 08:54:57;;;;;;;5.33;4.00;;;;;;;;;;5015369;28;20473;-81
2023/09/15 08:57:25;;;;;;;7.30;5.10;;;;;;;;;;5011208;28;21012;-79
2023/09/15 08:59:53;;;;;;;9.00;4.97;;;;;;;;;;5000740;28;20480;-80
2023/09/15 09:02:20;;;;;;;9.73;5.37;;;;;;;;;;4997574;28;20469;-80
2023/09/15 09:04:46;;;;;;;8.17;5.20;;;;;;;;;;5018829;28;20477;-79
2023/09/15 09:07:13;;;;;;;13.57;5.77;;;;;;;;;;4996941;28;20482;-80
2023/09/15 09:09:41;;;;;;;6.97;5.40;;;;;;;;;;5009840;28;20477;-79
2023/09/15 09:12:08;;;;;;;13.90;5.43;;;;;;;;;;5013771;28;20491;-80
2023/09/15 09:14:36;;;;;;;18.70;5.63;;;;;;;;;;5010395;28;20544;-81
2023/09/15 09:17:03;;;;;;;13.93;5.90;;;;;;;;;;5006644;28;20468;-80
2023/09/15 09:19:42;;;;;;;12.47;5.90;;;;;;;;;;5009906;28;20475;-81
2023/09/15 09:22:08;;;;;;;11.50;5.90;;;;;;;;;;5011131;28;20563;-79
2023/09/15 09:24:35;;;;;;;8.70;5.30;;;;;;;;;;4997885;28;20826;-79
2023/09/15 09:27:02;;;;;;;7.60;4.17;;;;;;;;;;5012482;28;21328;-80
2023/09/15 09:29:28;;;;;;;7.00;4.57;;;;;;;;;;5014332;28;20477;-80
2023/09/15 09:31:56;;;;;;;8.50;4.60;;;;;;;;;;5020471;28;20476;-79
2023/09/15 09:34:22;;;;;;;8.40;5.37;;;;;;;;;;5013816;28;20458;-80
2023/09/15 09:36:49;;;;;;;11.77;5.90;;;;;;;;;;5027851;28;20460;-80
2023/09/15 09:39:16;;;;;;;8.37;6.20;;;;;;;;;;5000563;28;20465;-80
2023/09/15 09:41:44;;;;;;;13.53;7.13;;;;;;;;;;4998155;28;20473;-79
2023/09/15 09:44:12;;;;;;;7.63;5.87;;;;;;;;;;5016607;28;20477;-80
2023/09/15 09:46:40;;;;;;;9.30;5.80;;;;;;;;;;5012638;28;20464;-79
2023/09/15 09:49:08;;;;;;;10.07;6.00;;;;;;;;;;5011380;28;20486;-81
2023/09/15 09:51:35;;;;;;;9.63;5.93;;;;;;;;;;5004237;28;20854;-79
2023/09/15 09:54:01;;;;;;;9.10;6.27;;;;;;;;;;5012397;28;20483;-82
2023/09/15 09:56:31;;;;;;;10.20;6.50;;;;;;;;;;5009458;28;20485;-81
2023/09/15 09:59:01;;;;;;;8.67;6.57;;;;;;;;;;5012284;28;20497;-80
2023/09/15 10:01:34;;;;;;;12.13;5.93;;;;;;;;;;5017923;28;20507;-80
2023/09/15 10:04:00;;;;;;;8.50;5.57;;;;;;;;;;5021611;28;20843;-79
2023/09/15 10:06:28;;;;;;;8.33;5.73;;;;;;;;;;5012835;28;20492;-80
2023/09/15 10:08:58;;;;;;;11.83;5.70;;;;;;;;;;5020602;28;20983;-80
2023/09/15 10:11:24;;;;;;;8.63;5.53;;;;;;;;;;5019322;28;20480;-79
2023/09/15 10:13:51;;;;;;;12.87;6.80;;;;;;;;;;5012705;28;20481;-80
2023/09/15 10:16:18;;;;;;;8.40;5.77;;;;;;;;;;5006915;28;20473;-80
2023/09/15 10:18:45;;;;;;;5.93;5.03;;;;;;;;;;5011771;28;20501;-80
2023/09/15 10:21:12;;;;;;;7.13;5.00;;;;;;;;;;4999777;28;20525;-80
2023/09/15 10:23:40;;;;;;;8.53;5.60;;;;;;;;;;5017172;28;20465;-79
2023/09/15 10:26:09;;;;;;;8.93;5.93;;;;;;;;;;5003410;28;20565;-81
2023/09/15 10:28:35;;;;;;;7.07;5.30;;;;;;;;;;5003141;28;20520;-79
2023/09/15 10:31:02;;;;;;;12.67;6.53;;;;;;;;;;5013128;28;20471;-80
2023/09/15 10:33:28;;;;;;;6.60;4.77;;;;;;;;;;5023103;28;20510;-79
2023/09/15 10:36:02;;;;;;;8.50;5.13;;;;;;;;;;5013437;28;20469;-80
2023/09/15 10:38:29;;;;;;;7.17;4.90;;;;;;;;;;5001735;28;20489;-80
2023/09/15 10:40:58;;;;;;;8.03;5.47;;;;;;;;;;5007000;28;20566;-81
2023/09/15 10:43:24;;;;;;;9.07;5.13;;;;;;;;;;5008581;28;20483;-80
2023/09/15 10:45:55;;;;;;;7.93;4.50;;;;;;;;;;5009558;28;21746;-79
2023/09/15 10:48:22;;;;;;;7.40;4.33;;;;;;;;;;5005094;28;21097;-79
2023/09/15 10:50:48;;;;;;;4.43;4.00;;;;;;;;;;5011598;28;20846;-79
2023/09/15 10:53:15;;;;;;;5.13;3.80;;;;;;;;;;5015686;28;20469;-79
2023/09/15 10:55:42;;;;;;;5.20;4.43;;;;;;;;;;5016201;28;21123;-79
2023/09/15 10:58:10;;;;;;;8.17;4.53;;;;;;;;;;5005891;28;20499;-80
2023/09/15 11:00:36;;;;;;;7.80;3.97;;;;;;;;;;4999410;28;20473;-81
2023/09/15 11:03:04;;;;;;;8.77;4.70;;;;;;;;;;5008531;28;20479;-79
2023/09/15 11:05:32;;;;;;;6.80;4.63;;;;;;;;;;5014136;28;20473;-79
2023/09/15 11:07:58;;;;;;;13.37;5.30;;;;;;;;;;5009850;28;20476;-79
2023/09/15 11:10:28;;;;;;;16.47;5.03;;;;;;;;;;4990293;28;20534;-79
2023/09/15 11:12:58;;;;;;;9.73;5.47;;;;;;;;;;5008282;28;20475;-79
2023/09/15 11:15:26;;;;;;;10.63;4.57;;;;;;;;;;5009694;28;20471;-81
2023/09/15 11:17:52;;;;;;;5.63;4.47;;;;;;;;;;5007211;28;20493;-79
2023/09/15 11:20:19;;;;;;;5.83;4.50;;;;;;;;;;5000767;28;20473;-80
2023/09/15 11:22:45;;;;;;;7.13;3.83;;;;;;;;;;5031323;28;20478;-81
2023/09/15 11:25:12;;;;;;;5.37;4.70;;;;;;;;;;5013702;28;20472;-79
2023/09/15 11:27:38;;;;;;;6.67;4.33;;;;;;;;;;4993614;28;20471;-79
2023/09/15 11:30:05;;;;;;;6.93;4.37;;;;;;;;;;5007268;28;20481;-80
2023/09/15 11:32:34;;;;;;;4.80;4.00;;;;;;;;;;5000835;28;20467;-80
2023/09/15 11:35:04;;;;;;;13.60;4.60;;;;;;;;;;4981180;28;20494;-79
2023/09/15 11:37:33;;;;;;;7.40;4.20;;;;;;;;;;4999513;28;20476;-79
2023/09/15 11:39:59;;;;;;;6.43;3.30;;;;;;;;;;5006743;28;20482;-79
2023/09/15 11:42:26;;;;;;;4.57;3.90;;;;;;;;;;5008382;28;20466;-79
2023/09/15 11:44:55;;;;;;;6.60;4.10;;;;;;;;;;5007368;28;20482;-79
2023/09/15 11:47:22;;;;;;;5.40;4.80;;;;;;;;;;4989253;28;20570;-79
2023/09/15 11:49:51;;;;;;;6.03;4.33;;;;;;;;;;5010790;28;20480;-79
2023/09/15 11:52:17;;;;;;;5.10;4.60;;;;;;;;;;5006863;28;20471;-79
2023/09/15 11:54:44;;;;;;;6.17;4.17;;;;;;;;;;5009098;28;20476;-79
2023/09/15 11:57:11;;;;;;;8.10;5.30;;;;;;;;;;5013735;28;20540;-79
2023/09/15 11:59:38;;;;;;;6.20;4.47;;;;;;;;;;5005585;28;20479;-79
2023/09/15 12:02:04;;;;;;;8.40;5.03;;;;;;;;;;5020586;28;20830;-81
2023/09/15 12:04:30;;;;;;;7.87;5.00;;;;;;;;;;5022435;28;20477;-78
2023/09/15 12:07:00;;;;;;;7.33;4.83;;;;;;;;;;4993023;28;20498;-80
2023/09/15 12:09:26;;;;;;;6.87;4.40;;;;;;;;;;5010716;28;20917;-79
2023/09/15 12:11:53;;;;;;;9.40;4.70;;;;;;;;;;5006376;28;21006;-79
2023/09/15 12:14:19;;;;;;;6.93;4.37;;;;;;;;;;5009084;28;21033;-78
2023/09/15 12:16:47;;;;;;;8.50;5.70;;;;;;;;;;5007272;28;20475;-80
2023/09/15 12:19:14;;;;;;;6.37;4.80;;;;;;;;;;5010027;28;20453;-78
2023/09/15 12:21:50;;;;;;;8.00;5.30;;;;;;;;;;5008781;28;20483;-78
2023/09/15 12:24:20;;;;;;;8.13;4.83;;;;;;;;;;5004390;28;20464;-79
2023/09/15 12:26:46;;;;;;;6.90;4.73;;;;;;;;;;4997969;28;20466;-79
2023/09/15 12:29:13;;;;;;;5.63;4.00;;;;;;;;;;5015458;28;20469;-79
2023/09/15 12:31:41;;;;;;;7.77;4.47;;;;;;;;;;4998374;28;20467;-79
2023/09/15 12:34:08;;;;;;;8.87;4.80;;;;;;;;;;5001038;28;20898;-79
2023/09/15 12:36:34;;;;;;;8.17;4.00;;;;;;;;;;5015373;28;21077;-78
2023/09/15 12:39:01;;;;;;;7.30;3.70;;;;;;;;;;4999392;28;20492;-79
2023/09/15 12:41:34;;;;;;;5.73;4.10;;;;;;;;;;5014145;28;20460;-79
2023/09/15 12:44:00;;;;;;;4.43;3.90;;;;;;;;;;5010748;28;20990;-79
2023/09/15 12:46:27;;;;;;;5.20;4.20;;;;;;;;;;5019661;28;20473;-79
2023/09/15 12:48:53;;;;;;;5.07;3.80;;;;;;;;;;5016525;28;20470;-80
2023/09/15 12:51:20;;;;;;;7.00;4.17;;;;;;;;;;5020492;28;20466;-80
2023/09/15 12:53:46;;;;;;;6.83;4.00;;;;;;;;;;5007974;28;20489;-79
2023/09/15 12:56:12;;;;;;;8.07;5.13;;;;;;;;;;5022980;28;20467;-80
2023/09/15 12:58:40;;;;;;;9.80;4.77;;;;;;;;;;5011385;28;20488;-80
2023/09/15 13:01:07;;;;;;;5.57;3.77;;;;;;;;;;5014499;28;20823;-79
2023/09/15 13:03:33;;;;;;;6.87;4.57;;;;;;;;;;5020580;28;20465;-79
2023/09/15 13:05:59;;;;;;;4.80;4.30;;;;;;;;;;5010063;28;20477;-79
2023/09/15 13:08:26;;;;;;;7.27;4.40;;;;;;;;;;5017677;28;20499;-79
2023/09/15 13:10:52;;;;;;;12.50;4.77;;;;;;;;;;4993816;28;20464;-79
2023/09/15 13:13:19;;;;;;;7.30;4.90;;;;;;;;;;5013207;28;20472;-79
2023/09/15 13:15:47;;;;;;;5.77;4.20;;;;;;;;;;5020917;28;20466;-78
2023/09/15 13:18:16;;;;;;;8.13;4.70;;;;;;;;;;5022426;28;20575;-80
2023/09/15 13:20:43;;;;;;;5.63;4.27;;;;;;;;;;5013155;28;21089;-79
2023/09/15 13:23:09;;;;;;;7.13;4.50;;;;;;;;;;5017565;28;20463;-79
2023/09/15 13:25:35;;;;;;;5.60;4.03;;;;;;;;;;5021342;28;20471;-79
2023/09/15 13:28:04;;;;;;;7.00;4.47;;;;;;;;;;5009108;28;20467;-79
2023/09/15 13:30:32;;;;;;;6.10;4.70;;;;;;;;;;5008865;28;20477;-82
2023/09/15 13:33:00;;;;;;;7.10;3.93;;;;;;;;;;5003246;28;20473;-79
2023/09/15 13:35:27;;;;;;;8.40;4.63;;;;;;;;;;5013459;28;20470;-79
2023/09/15 13:37:54;;;;;;;5.53;3.33;;;;;;;;;;5001569;28;20556;-79
2023/09/15 13:40:20;;;;;;;5.70;3.43;;;;;;;;;;5012466;28;20465;-79
2023/09/15 13:42:46;;;;;;;4.60;4.10;;;;;;;;;;5024077;28;20477;-78
2023/09/15 13:45:14;;;;;;;5.80;4.60;;;;;;;;;;5013868;28;20482;-79
2023/09/15 13:47:41;;;;;;;6.73;4.33;;;;;;;;;;5018817;28;20846;-79
2023/09/15 13:50:10;;;;;;;5.43;3.30;;;;;;;;;;5013195;28;20465;-79
2023/09/15 13:52:36;;;;;;;4.90;3.90;;;;;;;;;;4991521;28;20481;-78
2023/09/15 13:55:04;;;;;;;4.37;3.97;;;;;;;;;;5000695;28;20469;-78
2023/09/15 13:57:31;;;;;;;4.47;4.07;;;;;;;;;;5005863;28;20494;-81
2023/09/15 13:59:58;;;;;;;4.77;4.33;;;;;;;;;;5004848;28;20930;-78
2023/09/15 14:02:25;;;;;;;5.87;4.17;;;;;;;;;;5006838;28;20473;-78
2023/09/15 14:04:52;;;;;;;4.90;4.20;;;;;;;;;;5010179;28;20472;-78
2023/09/15 14:07:19;;;;;;;5.63;4.10;;;;;;;;;;5012300;28;20545;-80
2023/09/15 14:09:46;;;;;;;6.77;4.30;;;;;;;;;;4996268;28;20846;-80
2023/09/15 14:12:12;;;;;;;8.40;4.57;;;;;;;;;;5010933;28;20488;-80
2023/09/15 14:14:41;;;;;;;8.57;4.57;;;;;;;;;;5016055;28;20821;-79
2023/09/15 14:17:07;;;;;;;7.03;3.90;;;;;;;;;;5013626;28;20472;-79
2023/09/15 14:19:34;;;;;;;8.40;5.20;;;;;;;;;;5018057;28;20954;-80
2023/09/15 14:22:00;;;;;;;4.80;4.07;;;;;;;;;;4997136;28;20556;-81
2023/09/15 14:24:29;;;;;;;6.07;4.20;;;;;;;;;;5019150;28;20480;-78
2023/09/15 14:26:56;;;;;;;4.23;3.67;;;;;;;;;;5001478;28;20467;-79
2023/09/15 14:29:23;;;;;;;7.80;4.27;;;;;;;;;;5009151;28;20464;-79
2023/09/15 14:31:49;;;;;;;6.57;4.90;;;;;;;;;;5025364;28;20467;-78
2023/09/15 14:34:16;;;;;;;4.17;3.50;;;;;;;;;;5018618;28;20461;-78
2023/09/15 14:36:43;;;;;;;4.80;4.37;;;;;;;;;;5003441;28;20475;-79
2023/09/15 14:39:09;;;;;;;4.30;3.90;;;;;;;;;;5012013;28;20871;-79
2023/09/15 14:41:37;;;;;;;6.37;4.10;;;;;;;;;;5011298;28;20469;-79